This is the latest recevied weather packets stored in our database for station/object K6TTR. If no packets are shown the sender has not sent any weather packets the latest 10 day(s).
| Time | Temp. | Humidity | Pressure | Rain* | Wind** | Luminosity | Snow |
|---|---|---|---|---|---|---|---|
| 1777927418 | 15° C | 65% | 1012.6 hPa | 0 mm | - | 1206 W/m² | - |
| 1777927121 | 15° C | 67% | 1012.7 hPa | 0 mm | - | 1041 W/m² | - |
| 1777926811 | 14.44° C | 67% | 1012.8 hPa | 0 mm | - | 1063 W/m² | - |
| 1777926514 | 14.44° C | 66% | 1012.9 hPa | 0 mm | - | 997 W/m² | - |
| 1777926220 | 14.44° C | 66% | 1012.9 hPa | 0 mm | - | 1009 W/m² | - |
| 1777925927 | 14.44° C | 66% | 1013.1 hPa | 0 mm | - | 1005 W/m² | - |
| 1777925614 | 14.44° C | 66% | 1013 hPa | 0 mm | - | 997 W/m² | - |
| 1777925320 | 15° C | 65% | 1013.1 hPa | 0 mm | - | 1014 W/m² | - |
| 1777925024 | 15° C | 67% | 1013.1 hPa | 0 mm | - | 1021 W/m² | - |
| 1777924728 | 15° C | 66% | 1013.2 hPa | 0 mm | - | 1065 W/m² | - |
| 1777924414 | 15° C | 66% | 1013.3 hPa | 0 mm | - | 1025 W/m² | - |
| 1777924117 | 14.44° C | 68% | 1013.4 hPa | 0 mm | - | 1048 W/m² | - |
| 1777923823 | 13.89° C | 68% | 1013.5 hPa | 0 mm | - | 1058 W/m² | - |
| 1777923529 | 13.89° C | 68% | 1013.6 hPa | 0 mm | - | 1081 W/m² | - |
| 1777923216 | 13.89° C | 68% | 1013.5 hPa | 0 mm | - | 1027 W/m² | - |
| 1777922918 | 13.89° C | 67% | 1013.5 hPa | 0 mm | - | 1053 W/m² | - |
| 1777922623 | 13.33° C | 69% | 1013.5 hPa | 0 mm | - | 1069 W/m² | - |
| 1777922330 | 13.89° C | 68% | 1013.5 hPa | 0 mm | - | 218 W/m² | - |
| 1777922015 | 13.33° C | 70% | 1013.6 hPa | 0 mm | - | 1074 W/m² | - |
| 1777921723 | 13.33° C | 69% | 1013.7 hPa | 0 mm | - | 828 W/m² | - |
| 1777921427 | 13.33° C | 70% | 1013.4 hPa | 0 mm | - | 949 W/m² | - |
| 1777921112 | 12.78° C | 72% | 1013.5 hPa | 0 mm | - | 1014 W/m² | - |
| 1777920816 | 12.78° C | 71% | 1013.7 hPa | 0 mm | - | 540 W/m² | - |
| 1777920520 | 12.78° C | 72% | 1013.7 hPa | 0 mm | - | 452 W/m² | - |
| 1777920226 | 12.22° C | 74% | 1013.8 hPa | 0 mm | - | 803 W/m² | - |
* Rain latest hour (hover to see other rain measurements)
** Current wind speed in m/s (hover to see current wind gust speed)